createdAt,value
2023-02-28T00:01:35.748Z,5.80
2023-02-28T00:04:05.004Z,5.80
2023-02-28T00:06:35.906Z,5.80
2023-02-28T00:09:05.972Z,5.80
2023-02-28T00:11:37.716Z,5.80
2023-02-28T00:14:07.555Z,5.80
2023-02-28T00:16:43.969Z,5.70
2023-02-28T00:21:44.162Z,5.70
2023-02-28T00:24:14.222Z,5.80
2023-02-28T00:26:42.647Z,5.70
2023-02-28T00:29:11.895Z,5.70
2023-02-28T00:31:42.624Z,5.70
2023-02-28T00:34:13.029Z,5.70
2023-02-28T00:36:42.311Z,5.70
2023-02-28T00:39:10.463Z,5.70
2023-02-28T00:41:39.323Z,5.70
2023-02-28T00:44:09.257Z,5.70
2023-02-28T00:46:37.744Z,5.60
2023-02-28T00:49:06.155Z,5.60
2023-02-28T00:51:36.880Z,5.70
2023-02-28T00:54:05.373Z,5.70
2023-02-28T00:56:33.925Z,5.70
2023-02-28T00:59:03.452Z,5.70
2023-02-28T01:01:32.009Z,5.70
2023-02-28T01:04:00.563Z,5.60
2023-02-28T01:06:28.492Z,5.70
2023-02-28T01:08:58.328Z,5.70
2023-02-28T01:11:28.231Z,5.60
2023-02-28T01:13:56.957Z,5.70
2023-02-28T01:16:24.869Z,5.70
2023-02-28T01:18:53.756Z,5.70
2023-02-28T01:21:22.816Z,5.70
2023-02-28T01:23:52.591Z,5.70
2023-02-28T01:26:26.581Z,5.70
2023-02-28T01:28:55.637Z,5.70
2023-02-28T01:31:26.237Z,5.70
2023-02-28T01:33:54.841Z,5.80
2023-02-28T01:36:25.479Z,5.80
2023-02-28T01:38:54.331Z,5.70
2023-02-28T01:41:29.916Z,5.70
2023-02-28T01:44:29.636Z,5.80
2023-02-28T01:46:57.606Z,5.80
2023-02-28T01:49:26.034Z,5.70
2023-02-28T01:51:57.590Z,5.70
2023-02-28T01:54:30.960Z,5.70
2023-02-28T01:57:11.764Z,1.90
2023-02-28T02:00:05.492Z,5.60
2023-02-28T02:02:47.106Z,5.60
2023-02-28T02:05:28.059Z,5.60
2023-02-28T02:07:58.759Z,5.50
2023-02-28T02:10:40.394Z,5.40
2023-02-28T02:13:36.066Z,5.50
2023-02-28T02:16:20.333Z,5.50
2023-02-28T02:18:55.825Z,5.50
2023-02-28T02:21:52.209Z,5.60
2023-02-28T02:24:49.580Z,5.60
2023-02-28T02:27:40.826Z,5.60
2023-02-28T02:30:22.669Z,5.50
2023-02-28T02:33:33.964Z,5.50
2023-02-28T02:36:13.295Z,5.50
2023-02-28T02:39:11.857Z,5.50
2023-02-28T02:42:05.157Z,5.40
2023-02-28T02:44:50.740Z,5.40
2023-02-28T02:47:25.705Z,5.40
2023-02-28T02:49:57.120Z,5.30
2023-02-28T02:52:32.428Z,5.30
2023-02-28T02:55:03.244Z,5.20
2023-02-28T02:57:55.055Z,5.20
2023-02-28T03:00:32.756Z,5.10
2023-02-28T03:03:03.193Z,5.10
2023-02-28T03:05:43.233Z,5.10
2023-02-28T03:08:11.651Z,5.00
2023-02-28T03:10:44.499Z,5.00
2023-02-28T03:13:15.745Z,5.00
2023-02-28T03:16:25.223Z,5.00
2023-02-28T03:19:18.350Z,5.00
2023-02-28T03:22:10.185Z,5.00
2023-02-28T03:25:06.049Z,5.10
2023-02-28T03:27:42.772Z,5.10
2023-02-28T03:30:28.989Z,5.10
2023-02-28T03:33:02.322Z,5.10
2023-02-28T03:35:35.980Z,5.10
2023-02-28T03:38:30.918Z,5.10
2023-02-28T03:41:08.503Z,5.20
2023-02-28T03:43:39.391Z,5.20
2023-02-28T03:46:14.026Z,5.20
2023-02-28T03:48:49.176Z,5.10
2023-02-28T03:51:20.019Z,3.50
2023-02-28T03:53:54.592Z,4.90
2023-02-28T03:56:32.697Z,4.80
2023-02-28T03:59:06.862Z,4.80
2023-02-28T04:01:44.495Z,4.60
2023-02-28T04:04:13.835Z,4.40
2023-02-28T04:06:42.608Z,4.40
2023-02-28T04:11:44.712Z,4.50
2023-02-28T04:14:13.338Z,4.50
2023-02-28T04:16:43.097Z,4.40
2023-02-28T04:19:12.541Z,4.50
2023-02-28T04:21:43.183Z,4.60
2023-02-28T04:24:15.256Z,4.60
2023-02-28T04:26:47.988Z,4.70
2023-02-28T04:29:23.265Z,4.70
2023-02-28T04:31:51.751Z,4.70
2023-02-28T04:34:20.104Z,4.70
2023-02-28T04:39:37.880Z,4.80
2023-02-28T04:42:06.063Z,4.80
2023-02-28T04:44:33.754Z,4.80
2023-02-28T04:47:01.416Z,4.80
2023-02-28T04:51:57.230Z,4.90
2023-02-28T04:54:25.590Z,4.90
2023-02-28T04:56:53.406Z,4.90
2023-02-28T04:59:21.583Z,4.90
2023-02-28T05:01:49.852Z,4.90
2023-02-28T05:04:18.295Z,4.90
2023-02-28T05:06:46.144Z,4.90
2023-02-28T05:09:14.082Z,4.90
2023-02-28T05:11:42.182Z,4.90
2023-02-28T05:14:13.786Z,4.90
2023-02-28T05:19:09.587Z,4.90
2023-02-28T05:21:40.862Z,4.90
2023-02-28T05:24:11.668Z,4.90
2023-02-28T05:26:42.096Z,4.90
2023-02-28T05:29:10.758Z,4.90
2023-02-28T05:34:06.815Z,4.90
2023-02-28T05:36:35.420Z,4.90
2023-02-28T05:39:04.258Z,4.90
2023-02-28T05:41:32.335Z,5.00
2023-02-28T05:44:00.860Z,5.00
2023-02-28T05:46:28.507Z,5.00
2023-02-28T05:48:57.628Z,5.00
2023-02-28T05:51:25.376Z,5.00
2023-02-28T05:53:53.105Z,5.00
2023-02-28T05:56:21.273Z,5.00
2023-02-28T05:58:48.822Z,5.00
2023-02-28T06:01:39.283Z,5.00
2023-02-28T06:04:14.463Z,5.10
2023-02-28T06:06:51.196Z,5.00
2023-02-28T06:09:20.184Z,5.10
2023-02-28T06:11:48.011Z,5.00
2023-02-28T06:14:17.933Z,5.00
2023-02-28T06:16:45.987Z,5.00
2023-02-28T06:24:11.002Z,5.00
2023-02-28T06:26:38.632Z,5.00
2023-02-28T06:29:06.333Z,5.00
2023-02-28T06:31:34.357Z,4.90
2023-02-28T06:34:02.181Z,5.00
2023-02-28T06:36:29.844Z,4.90
2023-02-28T06:38:57.806Z,4.90
2023-02-28T06:41:27.120Z,4.90
2023-02-28T06:46:23.581Z,4.90
2023-02-28T06:48:51.595Z,4.90
2023-02-28T06:51:23.576Z,4.90
2023-02-28T06:53:51.929Z,4.90
2023-02-28T06:56:21.218Z,5.00
2023-02-28T06:58:53.993Z,5.00
2023-02-28T07:01:23.926Z,5.00
2023-02-28T07:03:53.209Z,5.00
2023-02-28T07:06:24.795Z,5.10
2023-02-28T07:08:54.082Z,5.10
2023-02-28T07:11:23.657Z,5.20
2023-02-28T07:13:52.056Z,5.10
2023-02-28T07:16:19.931Z,5.20
2023-02-28T07:18:47.905Z,5.30
2023-02-28T07:21:15.681Z,5.30
2023-02-28T07:23:43.425Z,5.20
2023-02-28T07:26:15.839Z,4.00
2023-02-28T07:28:45.293Z,5.30
2023-02-28T07:31:17.650Z,5.30
2023-02-28T07:33:45.687Z,5.30
2023-02-28T07:36:16.557Z,7.00
2023-02-28T07:38:48.592Z,5.30
2023-02-28T07:41:18.268Z,5.30
2023-02-28T07:43:49.324Z,5.30
2023-02-28T07:46:20.788Z,5.40
2023-02-28T07:48:48.909Z,5.40
2023-02-28T07:51:16.946Z,5.50
2023-02-28T07:53:44.619Z,5.50
2023-02-28T07:56:12.381Z,5.50
2023-02-28T07:58:40.047Z,5.40
2023-02-28T08:01:14.247Z,5.50
2023-02-28T08:03:42.106Z,5.50
2023-02-28T08:06:21.610Z,5.50
2023-02-28T08:11:18.870Z,5.60
2023-02-28T08:13:47.053Z,5.60
2023-02-28T08:16:23.155Z,5.60
2023-02-28T08:18:55.129Z,5.70
2023-02-28T08:23:51.925Z,5.70
2023-02-28T08:26:20.146Z,5.80
2023-02-28T08:31:17.648Z,5.90
2023-02-28T08:33:46.358Z,6.00
2023-02-28T08:38:42.068Z,6.00
2023-02-28T08:41:12.146Z,6.00
2023-02-28T08:43:41.317Z,6.00
2023-02-28T08:46:12.428Z,6.10
2023-02-28T08:48:40.701Z,6.10
2023-02-28T08:51:10.370Z,6.10
2023-02-28T08:53:40.443Z,6.20
2023-02-28T08:56:11.365Z,6.20
2023-02-28T08:58:39.220Z,6.30
2023-02-28T09:01:13.252Z,6.30
2023-02-28T09:03:43.236Z,6.30
2023-02-28T09:06:12.463Z,6.40
2023-02-28T09:08:41.108Z,6.40
2023-02-28T09:11:09.990Z,6.40
2023-02-28T09:13:38.379Z,6.40
2023-02-28T09:16:06.908Z,6.40
2023-02-28T09:18:39.468Z,6.50
2023-02-28T09:21:09.519Z,6.50
2023-02-28T09:23:39.205Z,6.60
2023-02-28T09:26:07.853Z,6.50
2023-02-28T09:28:35.766Z,6.60
2023-02-28T09:31:05.789Z,6.50
2023-02-28T09:33:35.362Z,6.60
2023-02-28T09:36:04.855Z,6.40
2023-02-28T09:38:32.767Z,6.60
2023-02-28T09:41:03.824Z,6.60
2023-02-28T09:43:39.041Z,6.60
2023-02-28T09:46:13.815Z,6.90
2023-02-28T09:48:46.973Z,6.80
2023-02-28T09:51:35.082Z,6.90
2023-02-28T09:54:03.831Z,6.90
2023-02-28T09:56:40.629Z,6.90
2023-02-28T09:59:17.071Z,6.90
2023-02-28T10:01:55.513Z,7.00
2023-02-28T10:04:56.168Z,7.00
2023-02-28T10:07:32.082Z,7.00
2023-02-28T10:10:03.600Z,7.00
2023-02-28T10:12:33.038Z,6.90
2023-02-28T10:15:03.417Z,6.90
2023-02-28T10:17:54.876Z,6.90
2023-02-28T10:20:32.217Z,7.00
2023-02-28T10:23:18.678Z,6.90
2023-02-28T10:26:02.602Z,6.90
2023-02-28T10:28:32.188Z,7.00
2023-02-28T10:31:00.282Z,7.10
2023-02-28T10:33:36.430Z,7.10
2023-02-28T10:36:04.974Z,7.10
2023-02-28T10:38:38.924Z,7.30
2023-02-28T10:41:20.731Z,7.40
2023-02-28T10:43:48.474Z,7.40
2023-02-28T10:46:27.475Z,6.70
2023-02-28T10:49:02.781Z,6.40
2023-02-28T10:51:37.637Z,7.40
2023-02-28T10:54:06.225Z,7.20
2023-02-28T10:56:34.580Z,7.20
2023-02-28T10:59:24.909Z,7.20
2023-02-28T11:01:54.433Z,7.20
2023-02-28T11:04:33.504Z,7.30
2023-02-28T11:07:04.864Z,7.30
2023-02-28T11:09:37.093Z,7.50
2023-02-28T11:12:08.284Z,7.50
2023-02-28T11:14:48.022Z,7.40
2023-02-28T11:17:30.950Z,7.40
2023-02-28T11:20:19.017Z,7.40
2023-02-28T11:22:47.765Z,7.40
2023-02-28T11:25:24.518Z,7.40
2023-02-28T11:27:54.585Z,7.60
2023-02-28T11:30:37.095Z,7.70
2023-02-28T11:33:30.340Z,8.00
2023-02-28T11:36:13.044Z,8.20
2023-02-28T11:38:40.945Z,8.20
2023-02-28T11:41:20.058Z,8.20
2023-02-28T11:43:53.845Z,8.20
2023-02-28T11:46:45.129Z,8.20
2023-02-28T11:49:32.437Z,8.20
2023-02-28T11:52:02.010Z,8.40
2023-02-28T11:54:29.943Z,8.50
2023-02-28T11:57:30.641Z,8.50
2023-02-28T12:00:26.410Z,8.30
2023-02-28T12:03:20.640Z,8.20
2023-02-28T12:05:58.285Z,8.00
2023-02-28T12:08:44.104Z,8.10
2023-02-28T12:11:36.460Z,8.00
2023-02-28T12:14:19.503Z,8.00
2023-02-28T12:16:53.213Z,8.00
2023-02-28T12:19:24.916Z,8.10
2023-02-28T12:22:27.218Z,8.10
2023-02-28T12:25:42.086Z,8.00
2023-02-28T12:28:13.084Z,8.20
2023-02-28T12:30:54.199Z,8.20
2023-02-28T12:33:25.984Z,8.30
2023-02-28T12:36:03.873Z,8.30
2023-02-28T12:38:41.618Z,8.40
2023-02-28T12:41:23.916Z,8.50
2023-02-28T12:44:06.963Z,8.60
2023-02-28T12:46:43.151Z,8.50
2023-02-28T12:49:27.103Z,8.40
2023-02-28T12:51:56.421Z,8.40
2023-02-28T12:54:45.415Z,8.60
2023-02-28T12:57:25.009Z,8.60
2023-02-28T13:00:00.239Z,8.50
2023-02-28T13:02:43.015Z,8.50
2023-02-28T13:05:19.676Z,8.50
2023-02-28T13:08:14.666Z,8.50
2023-02-28T13:10:45.697Z,8.50
2023-02-28T13:13:25.624Z,8.50
2023-02-28T13:16:11.737Z,8.40
2023-02-28T13:18:40.948Z,8.40
2023-02-28T13:21:11.320Z,8.30
2023-02-28T13:24:03.255Z,8.50
2023-02-28T13:26:40.006Z,8.50
2023-02-28T13:29:19.650Z,8.50
2023-02-28T13:32:06.941Z,8.50
2023-02-28T13:34:54.672Z,8.50
2023-02-28T13:37:22.359Z,8.40
2023-02-28T13:39:58.100Z,8.40
2023-02-28T13:42:31.504Z,8.30
2023-02-28T13:45:05.156Z,8.40
2023-02-28T13:48:12.370Z,8.60
2023-02-28T13:50:41.645Z,8.50
2023-02-28T13:53:15.675Z,8.60
2023-02-28T13:56:09.909Z,8.60
2023-02-28T13:58:56.717Z,8.50
2023-02-28T14:01:48.949Z,8.50
2023-02-28T14:04:54.577Z,8.50
2023-02-28T14:07:27.395Z,8.50
2023-02-28T14:10:09.710Z,8.40
2023-02-28T14:13:02.015Z,8.50
2023-02-28T14:15:39.325Z,8.60
2023-02-28T14:18:32.600Z,8.50
2023-02-28T14:21:35.508Z,8.50
2023-02-28T14:24:28.920Z,10.60
2023-02-28T14:26:59.301Z,8.50
2023-02-28T14:29:51.874Z,7.30
2023-02-28T14:32:39.409Z,8.50
2023-02-28T14:35:26.557Z,8.50
2023-02-28T14:37:54.999Z,8.60
2023-02-28T14:40:33.447Z,8.60
2023-02-28T14:43:07.556Z,8.50
2023-02-28T14:45:38.446Z,8.40
2023-02-28T14:48:10.956Z,8.30
2023-02-28T14:50:38.807Z,8.30
2023-02-28T14:53:12.681Z,8.30
2023-02-28T14:55:46.527Z,8.30
2023-02-28T14:58:25.384Z,8.20
2023-02-28T15:00:55.467Z,8.20
2023-02-28T15:03:32.300Z,8.20
2023-02-28T15:09:17.883Z,8.20
2023-02-28T15:11:50.928Z,8.30
2023-02-28T15:14:22.227Z,8.40
2023-02-28T15:16:58.354Z,8.40
2023-02-28T15:19:36.377Z,8.40
2023-02-28T15:22:05.845Z,8.30
2023-02-28T15:24:48.676Z,8.30
2023-02-28T15:27:28.648Z,8.20
2023-02-28T15:29:59.837Z,8.20
2023-02-28T15:32:31.187Z,8.20
2023-02-28T15:35:17.774Z,8.10
2023-02-28T15:37:54.704Z,8.00
2023-02-28T15:40:25.949Z,8.50
2023-02-28T15:43:33.096Z,8.00
2023-02-28T15:46:13.809Z,8.00
2023-02-28T15:48:57.328Z,8.00
2023-02-28T15:51:37.544Z,8.00
2023-02-28T15:54:21.847Z,7.90
2023-02-28T15:56:55.035Z,7.90
2023-02-28T15:59:25.909Z,7.80
2023-02-28T16:02:22.446Z,8.00
2023-02-28T16:05:19.272Z,7.90
2023-02-28T16:07:48.182Z,7.90
2023-02-28T16:10:15.954Z,8.00
2023-02-28T16:12:43.792Z,8.00
2023-02-28T16:15:24.212Z,8.00
2023-02-28T16:17:52.290Z,7.90
2023-02-28T16:20:21.594Z,7.90
2023-02-28T16:25:24.315Z,7.90
2023-02-28T16:27:56.655Z,8.00
2023-02-28T16:30:29.489Z,7.90
2023-02-28T16:32:57.415Z,8.00
2023-02-28T16:35:25.171Z,7.90
2023-02-28T16:37:53.986Z,7.90
2023-02-28T16:40:26.345Z,7.90
2023-02-28T16:42:58.618Z,7.80
2023-02-28T16:45:29.203Z,7.80
2023-02-28T16:47:57.441Z,7.90
2023-02-28T16:50:31.092Z,7.90
2023-02-28T16:52:58.751Z,7.10
2023-02-28T16:55:27.827Z,7.90
2023-02-28T16:57:58.295Z,7.90
2023-02-28T17:00:28.722Z,7.80
2023-02-28T17:02:57.376Z,7.90
2023-02-28T17:05:25.136Z,7.90
2023-02-28T17:07:53.448Z,7.80
2023-02-28T17:10:27.421Z,7.80
2023-02-28T17:12:58.464Z,7.90
2023-02-28T17:15:32.191Z,7.80
2023-02-28T17:17:59.762Z,7.80
2023-02-28T17:22:57.054Z,7.70
2023-02-28T17:25:25.656Z,7.70
2023-02-28T17:27:53.219Z,7.70
2023-02-28T17:30:24.242Z,7.70
2023-02-28T17:35:20.144Z,7.50
2023-02-28T17:37:47.961Z,7.60
2023-02-28T17:40:22.056Z,7.50
2023-02-28T17:42:49.874Z,7.50
2023-02-28T17:45:17.934Z,7.50
2023-02-28T17:47:48.550Z,7.40
2023-02-28T17:50:20.327Z,7.40
2023-02-28T17:52:48.263Z,7.50
2023-02-28T17:55:16.018Z,7.40
2023-02-28T17:57:43.704Z,7.40
2023-02-28T18:00:16.950Z,7.50
2023-02-28T18:02:45.940Z,7.40
2023-02-28T18:05:13.531Z,7.40
2023-02-28T18:07:41.809Z,7.30
2023-02-28T18:10:16.921Z,7.30
2023-02-28T18:12:45.048Z,11.10
2023-02-28T18:15:12.659Z,7.30
2023-02-28T18:17:40.369Z,7.30
2023-02-28T18:20:10.461Z,7.20
2023-02-28T18:22:39.636Z,7.20
2023-02-28T18:25:09.247Z,7.20
2023-02-28T18:27:37.443Z,7.20
2023-02-28T18:30:05.180Z,7.30
2023-02-28T18:32:32.982Z,7.20
2023-02-28T18:35:00.677Z,7.20
2023-02-28T18:37:28.271Z,7.10
2023-02-28T18:39:59.088Z,7.20
2023-02-28T18:42:27.380Z,7.10
2023-02-28T18:44:57.471Z,7.10
2023-02-28T18:47:25.107Z,7.20
2023-02-28T18:49:52.952Z,7.10
2023-02-28T18:52:21.545Z,7.10
2023-02-28T18:54:49.243Z,7.10
2023-02-28T18:57:16.817Z,7.10
2023-02-28T18:59:44.433Z,7.00
2023-02-28T19:02:12.576Z,7.10
2023-02-28T19:04:41.938Z,7.10
2023-02-28T19:09:38.092Z,7.00
2023-02-28T19:14:35.397Z,7.00
2023-02-28T19:17:03.117Z,7.00
2023-02-28T19:19:30.828Z,7.10
2023-02-28T19:21:58.844Z,7.00
2023-02-28T19:24:27.127Z,7.10
2023-02-28T19:26:55.021Z,7.10
2023-02-28T19:29:22.936Z,7.10
2023-02-28T19:31:51.312Z,7.10
2023-02-28T19:34:19.460Z,7.10
2023-02-28T19:36:48.306Z,7.10
2023-02-28T19:39:16.257Z,7.10
2023-02-28T19:41:43.763Z,7.10
2023-02-28T19:44:11.656Z,7.00
2023-02-28T19:49:07.177Z,6.80
2023-02-28T19:51:35.295Z,6.70
2023-02-28T19:54:04.489Z,6.60
2023-02-28T19:56:34.307Z,6.60
2023-02-28T20:01:30.635Z,6.70
2023-02-28T20:03:59.642Z,6.60
2023-02-28T20:06:27.315Z,6.60
2023-02-28T20:08:56.102Z,6.80
2023-02-28T20:11:25.775Z,6.70
2023-02-28T20:13:54.156Z,6.80
2023-02-28T20:16:21.743Z,6.70
2023-02-28T20:18:51.510Z,6.70
2023-02-28T20:21:19.258Z,6.70
2023-02-28T20:23:48.770Z,6.60
2023-02-28T20:26:17.361Z,6.70
2023-02-28T20:28:45.009Z,6.60
2023-02-28T20:31:15.898Z,6.70
2023-02-28T20:33:46.843Z,6.70
2023-02-28T20:36:16.007Z,6.60
2023-02-28T20:38:43.969Z,6.50
2023-02-28T20:41:12.374Z,6.50
2023-02-28T20:43:42.179Z,6.50
2023-02-28T20:46:10.801Z,6.50
2023-02-28T20:48:40.902Z,6.50
2023-02-28T20:53:36.843Z,6.50
2023-02-28T20:56:07.467Z,6.50
2023-02-28T20:58:37.411Z,6.60
2023-02-28T21:01:16.035Z,6.70
2023-02-28T21:03:46.190Z,6.80
2023-02-28T21:06:17.317Z,6.70
2023-02-28T21:08:46.224Z,6.70
2023-02-28T21:11:17.452Z,6.70
2023-02-28T21:13:46.708Z,6.70
2023-02-28T21:16:17.590Z,6.60
2023-02-28T21:18:46.431Z,6.60
2023-02-28T21:21:21.276Z,6.60
2023-02-28T21:23:49.860Z,6.60
2023-02-28T21:26:20.854Z,6.50
2023-02-28T21:28:57.685Z,6.40
2023-02-28T21:31:28.052Z,6.30
2023-02-28T21:33:57.718Z,6.20
2023-02-28T21:36:29.976Z,6.10
2023-02-28T21:39:00.068Z,6.10
2023-02-28T21:41:28.879Z,6.20
2023-02-28T21:43:57.221Z,6.20
2023-02-28T21:46:26.575Z,6.20
2023-02-28T21:48:54.813Z,6.20
2023-02-28T21:51:33.821Z,6.10
2023-02-28T21:54:02.185Z,6.00
2023-02-28T21:56:34.876Z,6.00
2023-02-28T21:59:03.855Z,6.00
2023-02-28T22:01:37.339Z,6.10
2023-02-28T22:04:08.382Z,6.10
2023-02-28T22:06:39.436Z,6.20
2023-02-28T22:09:08.957Z,6.20
2023-02-28T22:11:38.123Z,6.30
2023-02-28T22:14:06.907Z,6.30
2023-02-28T22:16:49.932Z,6.40
2023-02-28T22:19:20.026Z,6.40
2023-02-28T22:21:47.912Z,6.40
2023-02-28T22:24:18.180Z,6.30
2023-02-28T22:26:46.475Z,6.30
2023-02-28T22:29:14.463Z,6.10
2023-02-28T22:31:42.567Z,6.10
2023-02-28T22:34:13.160Z,6.00
2023-02-28T22:36:44.861Z,5.90
2023-02-28T22:39:13.771Z,5.90
2023-02-28T22:41:41.884Z,5.90
2023-02-28T22:44:11.118Z,5.90
2023-02-28T22:49:08.081Z,6.10
2023-02-28T22:51:35.965Z,6.00
2023-02-28T22:54:04.579Z,6.10
2023-02-28T22:56:32.808Z,6.20
2023-02-28T22:59:01.545Z,6.30
2023-02-28T23:01:32.299Z,6.30
2023-02-28T23:04:00.642Z,6.30
2023-02-28T23:06:35.425Z,6.30
2023-02-28T23:09:06.546Z,6.30
2023-02-28T23:11:38.330Z,6.40
2023-02-28T23:14:06.448Z,6.50
2023-02-28T23:16:44.379Z,6.50
2023-02-28T23:19:13.965Z,6.50
2023-02-28T23:21:43.676Z,6.40
2023-02-28T23:24:13.283Z,6.50
2023-02-28T23:26:44.040Z,6.50
2023-02-28T23:29:17.702Z,6.40
2023-02-28T23:31:45.657Z,6.40
2023-02-28T23:34:14.039Z,6.40
2023-02-28T23:36:46.110Z,6.30
2023-02-28T23:39:17.260Z,6.20
2023-02-28T23:41:45.948Z,6.10
2023-02-28T23:44:22.982Z,6.00
2023-02-28T23:46:52.699Z,5.90
2023-02-28T23:49:21.668Z,5.80
2023-02-28T23:51:50.680Z,5.70
2023-02-28T23:54:19.379Z,5.60
2023-02-28T23:56:47.157Z,5.60
2023-02-28T23:59:14.853Z,5.60
